sensor_id;sensor_type;location;lat;lon;timestamp;P1;durP1;ratioP1;P2;durP2;ratioP2
24650;SDS011;12783;48.824;8.662;2023-04-03T00:00:05;4.25;;;2.30;;
24650;SDS011;12783;48.824;8.662;2023-04-03T00:02:33;6.32;;;2.50;;
24650;SDS011;12783;48.824;8.662;2023-04-03T00:05:00;3.78;;;2.40;;
24650;SDS011;12783;48.824;8.662;2023-04-03T00:07:26;3.50;;;2.38;;
24650;SDS011;12783;48.824;8.662;2023-04-03T00:09:53;6.13;;;2.38;;
24650;SDS011;12783;48.824;8.662;2023-04-03T00:12:20;3.88;;;2.33;;
24650;SDS011;12783;48.824;8.662;2023-04-03T00:14:47;3.45;;;2.38;;
24650;SDS011;12783;48.824;8.662;2023-04-03T00:17:14;3.20;;;2.35;;
24650;SDS011;12783;48.824;8.662;2023-04-03T00:19:41;5.40;;;2.28;;
24650;SDS011;12783;48.824;8.662;2023-04-03T00:22:07;3.58;;;2.70;;
24650;SDS011;12783;48.824;8.662;2023-04-03T00:24:34;4.57;;;2.80;;
24650;SDS011;12783;48.824;8.662;2023-04-03T00:27:01;4.68;;;2.40;;
24650;SDS011;12783;48.824;8.662;2023-04-03T00:29:27;3.53;;;2.35;;
24650;SDS011;12783;48.824;8.662;2023-04-03T00:31:54;4.22;;;2.65;;
24650;SDS011;12783;48.824;8.662;2023-04-03T00:34:21;3.45;;;2.30;;
24650;SDS011;12783;48.824;8.662;2023-04-03T00:36:48;3.15;;;2.60;;
24650;SDS011;12783;48.824;8.662;2023-04-03T00:39:15;5.53;;;2.60;;
24650;SDS011;12783;48.824;8.662;2023-04-03T00:41:41;3.65;;;2.60;;
24650;SDS011;12783;48.824;8.662;2023-04-03T00:44:23;3.85;;;2.65;;
24650;SDS011;12783;48.824;8.662;2023-04-03T00:47:08;2.83;;;2.33;;
24650;SDS011;12783;48.824;8.662;2023-04-03T00:49:39;4.65;;;2.70;;
24650;SDS011;12783;48.824;8.662;2023-04-03T00:52:07;3.47;;;2.25;;
24650;SDS011;12783;48.824;8.662;2023-04-03T00:54:36;4.30;;;2.60;;
24650;SDS011;12783;48.824;8.662;2023-04-03T00:57:03;4.90;;;2.67;;
24650;SDS011;12783;48.824;8.662;2023-04-03T00:59:33;3.28;;;2.20;;
24650;SDS011;12783;48.824;8.662;2023-04-03T01:02:02;3.30;;;2.38;;
24650;SDS011;12783;48.824;8.662;2023-04-03T01:04:36;6.47;;;2.28;;
24650;SDS011;12783;48.824;8.662;2023-04-03T01:07:06;4.68;;;2.58;;
24650;SDS011;12783;48.824;8.662;2023-04-03T01:09:41;4.60;;;2.67;;
24650;SDS011;12783;48.824;8.662;2023-04-03T01:14:53;5.80;;;2.40;;
24650;SDS011;12783;48.824;8.662;2023-04-03T01:17:36;3.30;;;2.60;;
24650;SDS011;12783;48.824;8.662;2023-04-03T01:20:14;6.80;;;2.50;;
24650;SDS011;12783;48.824;8.662;2023-04-03T01:25:44;3.40;;;2.63;;
24650;SDS011;12783;48.824;8.662;2023-04-03T01:28:14;3.97;;;2.50;;
24650;SDS011;12783;48.824;8.662;2023-04-03T01:33:35;4.38;;;2.75;;
24650;SDS011;12783;48.824;8.662;2023-04-03T01:36:02;4.72;;;2.55;;
24650;SDS011;12783;48.824;8.662;2023-04-03T01:38:30;3.22;;;2.45;;
24650;SDS011;12783;48.824;8.662;2023-04-03T01:40:57;5.38;;;2.95;;
24650;SDS011;12783;48.824;8.662;2023-04-03T01:43:23;3.55;;;2.50;;
24650;SDS011;12783;48.824;8.662;2023-04-03T01:45:51;4.93;;;3.03;;
24650;SDS011;12783;48.824;8.662;2023-04-03T01:48:20;6.68;;;2.63;;
24650;SDS011;12783;48.824;8.662;2023-04-03T01:50:47;5.10;;;2.45;;
24650;SDS011;12783;48.824;8.662;2023-04-03T01:53:14;5.68;;;2.95;;
24650;SDS011;12783;48.824;8.662;2023-04-03T01:55:41;5.43;;;2.80;;
24650;SDS011;12783;48.824;8.662;2023-04-03T01:58:07;3.75;;;3.03;;
24650;SDS011;12783;48.824;8.662;2023-04-03T02:00:34;5.60;;;2.83;;
24650;SDS011;12783;48.824;8.662;2023-04-03T02:03:02;7.68;;;2.72;;
24650;SDS011;12783;48.824;8.662;2023-04-03T02:05:29;5.30;;;2.70;;
24650;SDS011;12783;48.824;8.662;2023-04-03T02:07:57;6.07;;;3.05;;
24650;SDS011;12783;48.824;8.662;2023-04-03T02:10:23;4.30;;;2.63;;
24650;SDS011;12783;48.824;8.662;2023-04-03T02:12:50;5.78;;;2.95;;
24650;SDS011;12783;48.824;8.662;2023-04-03T02:15:18;7.85;;;2.50;;
24650;SDS011;12783;48.824;8.662;2023-04-03T02:17:44;6.60;;;2.95;;
24650;SDS011;12783;48.824;8.662;2023-04-03T02:20:11;4.32;;;2.70;;
24650;SDS011;12783;48.824;8.662;2023-04-03T02:22:38;5.63;;;3.00;;
24650;SDS011;12783;48.824;8.662;2023-04-03T02:25:05;3.83;;;2.92;;
24650;SDS011;12783;48.824;8.662;2023-04-03T02:27:32;5.03;;;2.70;;
24650;SDS011;12783;48.824;8.662;2023-04-03T02:29:59;5.55;;;2.60;;
24650;SDS011;12783;48.824;8.662;2023-04-03T02:32:26;4.22;;;2.80;;
24650;SDS011;12783;48.824;8.662;2023-04-03T02:34:52;4.03;;;2.50;;
24650;SDS011;12783;48.824;8.662;2023-04-03T02:37:19;4.75;;;2.60;;
24650;SDS011;12783;48.824;8.662;2023-04-03T02:39:47;4.97;;;2.60;;
24650;SDS011;12783;48.824;8.662;2023-04-03T02:42:13;5.93;;;2.85;;
24650;SDS011;12783;48.824;8.662;2023-04-03T02:44:40;5.38;;;2.60;;
24650;SDS011;12783;48.824;8.662;2023-04-03T02:47:07;5.65;;;2.78;;
24650;SDS011;12783;48.824;8.662;2023-04-03T02:49:34;5.43;;;2.92;;
24650;SDS011;12783;48.824;8.662;2023-04-03T02:52:01;7.03;;;2.60;;
24650;SDS011;12783;48.824;8.662;2023-04-03T02:54:27;4.95;;;2.45;;
24650;SDS011;12783;48.824;8.662;2023-04-03T02:56:57;5.43;;;2.95;;
24650;SDS011;12783;48.824;8.662;2023-04-03T02:59:24;7.25;;;3.05;;
24650;SDS011;12783;48.824;8.662;2023-04-03T03:01:51;5.07;;;2.85;;
24650;SDS011;12783;48.824;8.662;2023-04-03T03:04:17;3.75;;;2.70;;
24650;SDS011;12783;48.824;8.662;2023-04-03T03:06:44;4.47;;;2.70;;
24650;SDS011;12783;48.824;8.662;2023-04-03T03:09:12;6.00;;;2.80;;
24650;SDS011;12783;48.824;8.662;2023-04-03T03:11:39;5.20;;;2.95;;
24650;SDS011;12783;48.824;8.662;2023-04-03T03:14:06;5.38;;;2.90;;
24650;SDS011;12783;48.824;8.662;2023-04-03T03:16:33;6.53;;;3.08;;
24650;SDS011;12783;48.824;8.662;2023-04-03T03:19:00;7.50;;;3.55;;
24650;SDS011;12783;48.824;8.662;2023-04-03T03:21:26;3.03;;;2.42;;
24650;SDS011;12783;48.824;8.662;2023-04-03T03:23:53;5.22;;;3.03;;
24650;SDS011;12783;48.824;8.662;2023-04-03T03:26:20;6.38;;;2.88;;
24650;SDS011;12783;48.824;8.662;2023-04-03T03:28:47;3.95;;;2.97;;
24650;SDS011;12783;48.824;8.662;2023-04-03T03:31:13;4.43;;;3.05;;
24650;SDS011;12783;48.824;8.662;2023-04-03T03:33:41;7.72;;;2.72;;
24650;SDS011;12783;48.824;8.662;2023-04-03T03:36:08;3.67;;;3.08;;
24650;SDS011;12783;48.824;8.662;2023-04-03T03:38:35;6.40;;;3.00;;
24650;SDS011;12783;48.824;8.662;2023-04-03T03:41:01;4.25;;;2.75;;
24650;SDS011;12783;48.824;8.662;2023-04-03T03:43:29;9.48;;;3.13;;
24650;SDS011;12783;48.824;8.662;2023-04-03T03:45:56;4.70;;;3.05;;
24650;SDS011;12783;48.824;8.662;2023-04-03T03:48:23;6.95;;;2.60;;
24650;SDS011;12783;48.824;8.662;2023-04-03T03:50:49;3.50;;;2.80;;
24650;SDS011;12783;48.824;8.662;2023-04-03T03:53:16;4.95;;;3.10;;
24650;SDS011;12783;48.824;8.662;2023-04-03T03:55:44;4.72;;;2.65;;
24650;SDS011;12783;48.824;8.662;2023-04-03T03:58:11;3.85;;;2.90;;
24650;SDS011;12783;48.824;8.662;2023-04-03T04:00:37;6.95;;;3.00;;
24650;SDS011;12783;48.824;8.662;2023-04-03T04:03:04;4.50;;;3.03;;
24650;SDS011;12783;48.824;8.662;2023-04-03T04:05:31;3.50;;;2.80;;
24650;SDS011;12783;48.824;8.662;2023-04-03T04:07:58;4.82;;;2.85;;
24650;SDS011;12783;48.824;8.662;2023-04-03T04:10:25;5.05;;;2.92;;
24650;SDS011;12783;48.824;8.662;2023-04-03T04:12:51;4.90;;;2.95;;
24650;SDS011;12783;48.824;8.662;2023-04-03T04:15:18;3.95;;;2.90;;
24650;SDS011;12783;48.824;8.662;2023-04-03T04:17:47;3.78;;;2.67;;
24650;SDS011;12783;48.824;8.662;2023-04-03T04:20:14;9.90;;;2.90;;
24650;SDS011;12783;48.824;8.662;2023-04-03T04:22:41;4.80;;;2.67;;
24650;SDS011;12783;48.824;8.662;2023-04-03T04:25:08;7.30;;;3.47;;
24650;SDS011;12783;48.824;8.662;2023-04-03T04:27:35;5.50;;;3.03;;
24650;SDS011;12783;48.824;8.662;2023-04-03T04:30:03;3.83;;;2.80;;
24650;SDS011;12783;48.824;8.662;2023-04-03T04:32:30;4.90;;;3.13;;
24650;SDS011;12783;48.824;8.662;2023-04-03T04:34:57;6.68;;;2.83;;
24650;SDS011;12783;48.824;8.662;2023-04-03T04:37:24;8.00;;;2.83;;
24650;SDS011;12783;48.824;8.662;2023-04-03T04:39:51;4.28;;;2.80;;
24650;SDS011;12783;48.824;8.662;2023-04-03T04:42:17;5.28;;;2.95;;
24650;SDS011;12783;48.824;8.662;2023-04-03T04:44:44;5.07;;;2.85;;
24650;SDS011;12783;48.824;8.662;2023-04-03T04:47:11;5.18;;;2.78;;
24650;SDS011;12783;48.824;8.662;2023-04-03T04:49:38;5.80;;;2.78;;
24650;SDS011;12783;48.824;8.662;2023-04-03T04:52:05;6.18;;;2.90;;
24650;SDS011;12783;48.824;8.662;2023-04-03T04:54:32;6.00;;;2.90;;
24650;SDS011;12783;48.824;8.662;2023-04-03T04:56:59;6.28;;;3.40;;
24650;SDS011;12783;48.824;8.662;2023-04-03T04:59:26;4.05;;;2.70;;
24650;SDS011;12783;48.824;8.662;2023-04-03T05:01:53;6.45;;;2.60;;
24650;SDS011;12783;48.824;8.662;2023-04-03T05:04:19;6.38;;;2.75;;
24650;SDS011;12783;48.824;8.662;2023-04-03T05:06:46;4.82;;;2.95;;
24650;SDS011;12783;48.824;8.662;2023-04-03T05:09:13;8.68;;;3.08;;
24650;SDS011;12783;48.824;8.662;2023-04-03T05:11:41;3.63;;;2.80;;
24650;SDS011;12783;48.824;8.662;2023-04-03T05:14:09;4.35;;;2.85;;
24650;SDS011;12783;48.824;8.662;2023-04-03T05:16:35;6.05;;;2.83;;
24650;SDS011;12783;48.824;8.662;2023-04-03T05:19:02;4.75;;;2.78;;
24650;SDS011;12783;48.824;8.662;2023-04-03T05:21:30;6.75;;;2.95;;
24650;SDS011;12783;48.824;8.662;2023-04-03T05:23:59;5.65;;;3.10;;
24650;SDS011;12783;48.824;8.662;2023-04-03T05:26:30;3.85;;;2.80;;
24650;SDS011;12783;48.824;8.662;2023-04-03T05:28:57;7.78;;;2.85;;
24650;SDS011;12783;48.824;8.662;2023-04-03T05:31:23;5.90;;;3.00;;
24650;SDS011;12783;48.824;8.662;2023-04-03T05:33:50;4.05;;;2.70;;
24650;SDS011;12783;48.824;8.662;2023-04-03T05:36:17;4.00;;;2.70;;
24650;SDS011;12783;48.824;8.662;2023-04-03T05:38:44;4.20;;;2.70;;
24650;SDS011;12783;48.824;8.662;2023-04-03T05:41:12;3.35;;;2.45;;
24650;SDS011;12783;48.824;8.662;2023-04-03T05:43:39;4.43;;;2.78;;
24650;SDS011;12783;48.824;8.662;2023-04-03T05:46:13;4.30;;;2.53;;
24650;SDS011;12783;48.824;8.662;2023-04-03T05:48:42;3.45;;;2.47;;
24650;SDS011;12783;48.824;8.662;2023-04-03T05:51:13;3.15;;;2.10;;
24650;SDS011;12783;48.824;8.662;2023-04-03T05:53:45;4.30;;;2.85;;
24650;SDS011;12783;48.824;8.662;2023-04-03T05:56:12;4.47;;;2.22;;
24650;SDS011;12783;48.824;8.662;2023-04-03T05:58:40;5.78;;;2.72;;
24650;SDS011;12783;48.824;8.662;2023-04-03T06:01:07;4.90;;;3.00;;
24650;SDS011;12783;48.824;8.662;2023-04-03T06:03:34;4.65;;;2.70;;
24650;SDS011;12783;48.824;8.662;2023-04-03T06:06:05;4.20;;;2.58;;
24650;SDS011;12783;48.824;8.662;2023-04-03T06:08:32;4.57;;;2.50;;
24650;SDS011;12783;48.824;8.662;2023-04-03T06:10:59;4.53;;;2.75;;
24650;SDS011;12783;48.824;8.662;2023-04-03T06:13:28;3.67;;;2.55;;
24650;SDS011;12783;48.824;8.662;2023-04-03T06:15:55;3.17;;;2.40;;
24650;SDS011;12783;48.824;8.662;2023-04-03T06:18:22;4.38;;;2.67;;
24650;SDS011;12783;48.824;8.662;2023-04-03T06:20:50;3.33;;;2.80;;
24650;SDS011;12783;48.824;8.662;2023-04-03T06:23:18;4.35;;;2.53;;
24650;SDS011;12783;48.824;8.662;2023-04-03T06:25:44;4.95;;;2.58;;
24650;SDS011;12783;48.824;8.662;2023-04-03T06:28:12;3.95;;;2.63;;
24650;SDS011;12783;48.824;8.662;2023-04-03T06:30:39;5.65;;;2.90;;
24650;SDS011;12783;48.824;8.662;2023-04-03T06:33:06;3.33;;;2.30;;
24650;SDS011;12783;48.824;8.662;2023-04-03T06:35:33;3.92;;;2.90;;
24650;SDS011;12783;48.824;8.662;2023-04-03T06:38:01;4.88;;;3.10;;
24650;SDS011;12783;48.824;8.662;2023-04-03T06:40:30;4.93;;;3.03;;
24650;SDS011;12783;48.824;8.662;2023-04-03T06:42:57;6.32;;;2.83;;
24650;SDS011;12783;48.824;8.662;2023-04-03T06:45:23;4.05;;;2.53;;
24650;SDS011;12783;48.824;8.662;2023-04-03T06:47:51;5.30;;;2.78;;
24650;SDS011;12783;48.824;8.662;2023-04-03T06:50:18;4.93;;;2.42;;
24650;SDS011;12783;48.824;8.662;2023-04-03T06:52:46;6.00;;;2.65;;
24650;SDS011;12783;48.824;8.662;2023-04-03T06:55:12;7.32;;;2.90;;
24650;SDS011;12783;48.824;8.662;2023-04-03T06:57:39;6.22;;;2.53;;
24650;SDS011;12783;48.824;8.662;2023-04-03T07:00:06;5.18;;;2.83;;
24650;SDS011;12783;48.824;8.662;2023-04-03T07:02:33;3.53;;;2.33;;
24650;SDS011;12783;48.824;8.662;2023-04-03T07:05:00;3.15;;;2.20;;
24650;SDS011;12783;48.824;8.662;2023-04-03T07:07:27;3.90;;;2.70;;
24650;SDS011;12783;48.824;8.662;2023-04-03T07:09:54;4.20;;;2.20;;
24650;SDS011;12783;48.824;8.662;2023-04-03T07:12:21;3.75;;;2.42;;
24650;SDS011;12783;48.824;8.662;2023-04-03T07:14:48;6.60;;;2.55;;
24650;SDS011;12783;48.824;8.662;2023-04-03T07:17:15;4.38;;;2.60;;
24650;SDS011;12783;48.824;8.662;2023-04-03T07:19:41;4.35;;;2.50;;
24650;SDS011;12783;48.824;8.662;2023-04-03T07:22:08;5.07;;;2.90;;
24650;SDS011;12783;48.824;8.662;2023-04-03T07:24:37;5.70;;;2.85;;
24650;SDS011;12783;48.824;8.662;2023-04-03T07:27:04;4.93;;;2.55;;
24650;SDS011;12783;48.824;8.662;2023-04-03T07:29:31;3.35;;;2.22;;
24650;SDS011;12783;48.824;8.662;2023-04-03T07:31:58;6.32;;;2.80;;
24650;SDS011;12783;48.824;8.662;2023-04-03T07:34:25;7.60;;;3.05;;
24650;SDS011;12783;48.824;8.662;2023-04-03T07:36:51;4.13;;;2.50;;
24650;SDS011;12783;48.824;8.662;2023-04-03T07:39:18;4.97;;;2.70;;
24650;SDS011;12783;48.824;8.662;2023-04-03T07:41:45;6.82;;;3.10;;
24650;SDS011;12783;48.824;8.662;2023-04-03T07:44:12;5.32;;;3.00;;
24650;SDS011;12783;48.824;8.662;2023-04-03T07:46:39;7.65;;;3.08;;
24650;SDS011;12783;48.824;8.662;2023-04-03T07:49:07;5.75;;;2.83;;
24650;SDS011;12783;48.824;8.662;2023-04-03T07:51:33;9.30;;;3.00;;
24650;SDS011;12783;48.824;8.662;2023-04-03T07:54:01;3.90;;;2.55;;
24650;SDS011;12783;48.824;8.662;2023-04-03T07:56:28;6.63;;;2.63;;
24650;SDS011;12783;48.824;8.662;2023-04-03T07:58:55;4.90;;;2.92;;
24650;SDS011;12783;48.824;8.662;2023-04-03T08:01:22;8.90;;;4.35;;
24650;SDS011;12783;48.824;8.662;2023-04-03T08:03:48;6.82;;;2.75;;
24650;SDS011;12783;48.824;8.662;2023-04-03T08:06:15;5.93;;;3.22;;
24650;SDS011;12783;48.824;8.662;2023-04-03T08:08:48;7.25;;;2.97;;
24650;SDS011;12783;48.824;8.662;2023-04-03T08:11:15;5.25;;;3.00;;
24650;SDS011;12783;48.824;8.662;2023-04-03T08:13:42;6.25;;;2.70;;
24650;SDS011;12783;48.824;8.662;2023-04-03T08:16:13;8.52;;;3.42;;
24650;SDS011;12783;48.824;8.662;2023-04-03T08:18:43;5.10;;;3.03;;
24650;SDS011;12783;48.824;8.662;2023-04-03T08:21:10;4.93;;;2.95;;
24650;SDS011;12783;48.824;8.662;2023-04-03T08:23:38;5.45;;;3.28;;
24650;SDS011;12783;48.824;8.662;2023-04-03T08:26:12;5.22;;;3.22;;
24650;SDS011;12783;48.824;8.662;2023-04-03T08:28:40;5.60;;;3.20;;
24650;SDS011;12783;48.824;8.662;2023-04-03T08:31:09;6.15;;;3.38;;
24650;SDS011;12783;48.824;8.662;2023-04-03T08:33:38;4.80;;;3.00;;
24650;SDS011;12783;48.824;8.662;2023-04-03T08:36:06;5.22;;;3.58;;
24650;SDS011;12783;48.824;8.662;2023-04-03T08:38:41;6.65;;;3.15;;
24650;SDS011;12783;48.824;8.662;2023-04-03T08:41:13;7.78;;;3.22;;
24650;SDS011;12783;48.824;8.662;2023-04-03T08:43:53;5.47;;;3.20;;
24650;SDS011;12783;48.824;8.662;2023-04-03T08:46:33;6.68;;;3.50;;
24650;SDS011;12783;48.824;8.662;2023-04-03T08:49:15;8.10;;;3.60;;
24650;SDS011;12783;48.824;8.662;2023-04-03T08:51:51;5.97;;;3.25;;
24650;SDS011;12783;48.824;8.662;2023-04-03T08:54:23;5.55;;;3.22;;
24650;SDS011;12783;48.824;8.662;2023-04-03T08:56:59;7.78;;;2.80;;
24650;SDS011;12783;48.824;8.662;2023-04-03T08:59:31;5.95;;;3.17;;
24650;SDS011;12783;48.824;8.662;2023-04-03T09:02:01;8.02;;;2.70;;
24650;SDS011;12783;48.824;8.662;2023-04-03T09:04:33;12.20;;;3.33;;
24650;SDS011;12783;48.824;8.662;2023-04-03T09:07:07;7.38;;;3.13;;
24650;SDS011;12783;48.824;8.662;2023-04-03T09:09:38;6.63;;;3.33;;
24650;SDS011;12783;48.824;8.662;2023-04-03T09:12:17;6.80;;;3.40;;
24650;SDS011;12783;48.824;8.662;2023-04-03T09:20:10;5.75;;;3.25;;
24650;SDS011;12783;48.824;8.662;2023-04-03T09:22:40;6.10;;;3.25;;
24650;SDS011;12783;48.824;8.662;2023-04-03T09:25:27;9.15;;;3.03;;
24650;SDS011;12783;48.824;8.662;2023-04-03T09:27:59;5.30;;;2.78;;
24650;SDS011;12783;48.824;8.662;2023-04-03T09:30:27;3.60;;;3.00;;
24650;SDS011;12783;48.824;8.662;2023-04-03T09:32:55;4.38;;;2.70;;
24650;SDS011;12783;48.824;8.662;2023-04-03T09:40:36;6.07;;;2.80;;
24650;SDS011;12783;48.824;8.662;2023-04-03T09:43:23;6.88;;;2.80;;
24650;SDS011;12783;48.824;8.662;2023-04-03T09:45:51;6.80;;;2.85;;
24650;SDS011;12783;48.824;8.662;2023-04-03T09:48:20;6.93;;;2.72;;
24650;SDS011;12783;48.824;8.662;2023-04-03T09:59:26;3.42;;;2.25;;
24650;SDS011;12783;48.824;8.662;2023-04-03T10:01:38;5.07;;;2.33;;
24650;SDS011;12783;48.824;8.662;2023-04-03T10:09:30;4.03;;;2.70;;
24650;SDS011;12783;48.824;8.662;2023-04-03T10:12:03;8.03;;;2.20;;
24650;SDS011;12783;48.824;8.662;2023-04-03T10:14:32;4.28;;;2.15;;
24650;SDS011;12783;48.824;8.662;2023-04-03T10:17:09;5.25;;;2.30;;
24650;SDS011;12783;48.824;8.662;2023-04-03T10:23:00;4.18;;;2.05;;
24650;SDS011;12783;48.824;8.662;2023-04-03T10:28:10;5.63;;;2.33;;
24650;SDS011;12783;48.824;8.662;2023-04-03T10:31:04;7.00;;;2.63;;
24650;SDS011;12783;48.824;8.662;2023-04-03T10:36:19;5.15;;;2.40;;
24650;SDS011;12783;48.824;8.662;2023-04-03T10:41:44;3.75;;;2.40;;
24650;SDS011;12783;48.824;8.662;2023-04-03T10:47:00;6.50;;;2.60;;
24650;SDS011;12783;48.824;8.662;2023-04-03T10:49:48;6.20;;;2.40;;
24650;SDS011;12783;48.824;8.662;2023-04-03T10:57:39;8.45;;;5.15;;
24650;SDS011;12783;48.824;8.662;2023-04-03T11:00:14;4.57;;;2.10;;
24650;SDS011;12783;48.824;8.662;2023-04-03T11:02:48;5.10;;;2.30;;
24650;SDS011;12783;48.824;8.662;2023-04-03T11:05:31;3.25;;;1.98;;
24650;SDS011;12783;48.824;8.662;2023-04-03T11:08:04;5.03;;;2.10;;
24650;SDS011;12783;48.824;8.662;2023-04-03T11:10:48;4.18;;;2.05;;
24650;SDS011;12783;48.824;8.662;2023-04-03T11:13:18;7.25;;;2.40;;
24650;SDS011;12783;48.824;8.662;2023-04-03T11:15:54;3.00;;;2.30;;
24650;SDS011;12783;48.824;8.662;2023-04-03T11:18:23;3.10;;;1.90;;
24650;SDS011;12783;48.824;8.662;2023-04-03T11:20:59;3.60;;;2.05;;
24650;SDS011;12783;48.824;8.662;2023-04-03T11:23:34;3.83;;;2.25;;
24650;SDS011;12783;48.824;8.662;2023-04-03T11:26:16;5.20;;;2.30;;
24650;SDS011;12783;48.824;8.662;2023-04-03T11:28:44;3.95;;;2.05;;
24650;SDS011;12783;48.824;8.662;2023-04-03T11:36:38;3.80;;;2.17;;
24650;SDS011;12783;48.824;8.662;2023-04-03T11:39:33;3.40;;;2.00;;
24650;SDS011;12783;48.824;8.662;2023-04-03T11:44:45;4.18;;;2.22;;
24650;SDS011;12783;48.824;8.662;2023-04-03T11:47:13;3.65;;;2.17;;
24650;SDS011;12783;48.824;8.662;2023-04-03T12:13:41;4.15;;;2.20;;
24650;SDS011;12783;48.824;8.662;2023-04-03T12:16:21;5.18;;;2.30;;
24650;SDS011;12783;48.824;8.662;2023-04-03T12:22:08;5.18;;;2.00;;
24650;SDS011;12783;48.824;8.662;2023-04-03T12:24:38;2.47;;;2.00;;
24650;SDS011;12783;48.824;8.662;2023-04-03T12:27:15;2.95;;;1.80;;
24650;SDS011;12783;48.824;8.662;2023-04-03T12:30:05;4.82;;;2.10;;
24650;SDS011;12783;48.824;8.662;2023-04-03T12:43:50;4.85;;;1.98;;
24650;SDS011;12783;48.824;8.662;2023-04-03T12:46:23;3.47;;;2.10;;
24650;SDS011;12783;48.824;8.662;2023-04-03T12:48:52;7.30;;;2.10;;
24650;SDS011;12783;48.824;8.662;2023-04-03T12:53:58;4.32;;;2.00;;
24650;SDS011;12783;48.824;8.662;2023-04-03T12:56:30;5.25;;;2.30;;
24650;SDS011;12783;48.824;8.662;2023-04-03T12:59:15;5.28;;;2.10;;
24650;SDS011;12783;48.824;8.662;2023-04-03T13:01:44;3.83;;;2.05;;
24650;SDS011;12783;48.824;8.662;2023-04-03T13:04:23;4.68;;;2.13;;
24650;SDS011;12783;48.824;8.662;2023-04-03T13:06:50;3.55;;;2.40;;
24650;SDS011;12783;48.824;8.662;2023-04-03T13:09:18;4.95;;;1.83;;
24650;SDS011;12783;48.824;8.662;2023-04-03T13:11:48;5.35;;;2.10;;
24650;SDS011;12783;48.824;8.662;2023-04-03T13:14:18;3.08;;;1.67;;
24650;SDS011;12783;48.824;8.662;2023-04-03T13:16:55;4.93;;;2.10;;
24650;SDS011;12783;48.824;8.662;2023-04-03T13:19:27;5.82;;;2.10;;
24650;SDS011;12783;48.824;8.662;2023-04-03T13:21:58;5.47;;;2.13;;
24650;SDS011;12783;48.824;8.662;2023-04-03T13:24:26;5.20;;;2.20;;
24650;SDS011;12783;48.824;8.662;2023-04-03T13:26:56;4.45;;;2.08;;
24650;SDS011;12783;48.824;8.662;2023-04-03T13:29:25;4.72;;;2.05;;
24650;SDS011;12783;48.824;8.662;2023-04-03T13:31:57;6.93;;;2.15;;
24650;SDS011;12783;48.824;8.662;2023-04-03T13:34:26;3.05;;;2.00;;
24650;SDS011;12783;48.824;8.662;2023-04-03T13:37:52;5.15;;;2.22;;
24650;SDS011;12783;48.824;8.662;2023-04-03T13:42:33;3.70;;;1.92;;
24650;SDS011;12783;48.824;8.662;2023-04-03T13:47:52;5.38;;;2.15;;
24650;SDS011;12783;48.824;8.662;2023-04-03T13:50:53;5.70;;;2.05;;
24650;SDS011;12783;48.824;8.662;2023-04-03T13:53:24;7.38;;;2.08;;
24650;SDS011;12783;48.824;8.662;2023-04-03T13:56:37;3.45;;;2.10;;
24650;SDS011;12783;48.824;8.662;2023-04-03T14:01:25;2.80;;;1.90;;
24650;SDS011;12783;48.824;8.662;2023-04-03T14:04:00;5.10;;;2.00;;
24650;SDS011;12783;48.824;8.662;2023-04-03T14:06:36;4.22;;;1.85;;
24650;SDS011;12783;48.824;8.662;2023-04-03T14:09:02;3.83;;;1.67;;
24650;SDS011;12783;48.824;8.662;2023-04-03T14:11:29;2.75;;;1.60;;
24650;SDS011;12783;48.824;8.662;2023-04-03T14:14:09;3.42;;;2.08;;
24650;SDS011;12783;48.824;8.662;2023-04-03T14:16:39;3.63;;;1.88;;
24650;SDS011;12783;48.824;8.662;2023-04-03T14:19:11;5.50;;;2.40;;
24650;SDS011;12783;48.824;8.662;2023-04-03T14:21:44;4.25;;;2.50;;
24650;SDS011;12783;48.824;8.662;2023-04-03T14:24:11;4.03;;;2.17;;
24650;SDS011;12783;48.824;8.662;2023-04-03T14:26:38;9.70;;;1.95;;
24650;SDS011;12783;48.824;8.662;2023-04-03T14:29:05;5.35;;;1.92;;
24650;SDS011;12783;48.824;8.662;2023-04-03T14:31:32;5.43;;;2.10;;
24650;SDS011;12783;48.824;8.662;2023-04-03T14:33:59;4.05;;;1.95;;
24650;SDS011;12783;48.824;8.662;2023-04-03T14:36:27;5.57;;;2.30;;
24650;SDS011;12783;48.824;8.662;2023-04-03T14:38:55;12.02;;;1.92;;
24650;SDS011;12783;48.824;8.662;2023-04-03T14:41:23;8.02;;;2.40;;
24650;SDS011;12783;48.824;8.662;2023-04-03T14:43:50;4.90;;;1.83;;
24650;SDS011;12783;48.824;8.662;2023-04-03T14:46:35;7.38;;;2.08;;
24650;SDS011;12783;48.824;8.662;2023-04-03T14:49:21;4.40;;;2.13;;
24650;SDS011;12783;48.824;8.662;2023-04-03T14:51:50;3.08;;;1.70;;
24650;SDS011;12783;48.824;8.662;2023-04-03T14:54:19;7.82;;;2.80;;
24650;SDS011;12783;48.824;8.662;2023-04-03T14:56:51;3.83;;;1.80;;
24650;SDS011;12783;48.824;8.662;2023-04-03T14:59:19;6.13;;;2.08;;
24650;SDS011;12783;48.824;8.662;2023-04-03T15:01:47;2.85;;;2.30;;
24650;SDS011;12783;48.824;8.662;2023-04-03T15:04:15;4.43;;;2.00;;
24650;SDS011;12783;48.824;8.662;2023-04-03T15:06:47;2.67;;;1.70;;
24650;SDS011;12783;48.824;8.662;2023-04-03T15:09:19;4.25;;;2.00;;
24650;SDS011;12783;48.824;8.662;2023-04-03T15:11:50;3.88;;;2.10;;
24650;SDS011;12783;48.824;8.662;2023-04-03T15:14:17;3.92;;;2.05;;
24650;SDS011;12783;48.824;8.662;2023-04-03T15:17:02;3.72;;;1.90;;
24650;SDS011;12783;48.824;8.662;2023-04-03T15:19:35;3.53;;;1.77;;
24650;SDS011;12783;48.824;8.662;2023-04-03T15:22:04;6.13;;;1.98;;
24650;SDS011;12783;48.824;8.662;2023-04-03T15:24:31;3.22;;;1.98;;
24650;SDS011;12783;48.824;8.662;2023-04-03T15:26:58;9.23;;;2.20;;
24650;SDS011;12783;48.824;8.662;2023-04-03T15:29:26;5.03;;;1.88;;
24650;SDS011;12783;48.824;8.662;2023-04-03T15:31:53;4.53;;;1.88;;
24650;SDS011;12783;48.824;8.662;2023-04-03T15:34:20;4.65;;;1.88;;
24650;SDS011;12783;48.824;8.662;2023-04-03T15:36:48;3.97;;;2.45;;
24650;SDS011;12783;48.824;8.662;2023-04-03T15:39:16;3.95;;;2.08;;
24650;SDS011;12783;48.824;8.662;2023-04-03T15:41:43;4.43;;;2.15;;
24650;SDS011;12783;48.824;8.662;2023-04-03T15:44:11;3.83;;;2.17;;
24650;SDS011;12783;48.824;8.662;2023-04-03T15:46:39;3.00;;;2.08;;
24650;SDS011;12783;48.824;8.662;2023-04-03T15:49:05;5.78;;;2.20;;
24650;SDS011;12783;48.824;8.662;2023-04-03T15:51:32;4.97;;;2.45;;
24650;SDS011;12783;48.824;8.662;2023-04-03T15:53:59;6.13;;;2.78;;
24650;SDS011;12783;48.824;8.662;2023-04-03T15:56:26;4.40;;;2.10;;
24650;SDS011;12783;48.824;8.662;2023-04-03T15:58:52;5.47;;;2.47;;
24650;SDS011;12783;48.824;8.662;2023-04-03T16:01:19;3.17;;;1.90;;
24650;SDS011;12783;48.824;8.662;2023-04-03T16:03:46;4.25;;;2.00;;
24650;SDS011;12783;48.824;8.662;2023-04-03T16:06:14;6.65;;;2.47;;
24650;SDS011;12783;48.824;8.662;2023-04-03T16:08:45;5.35;;;1.90;;
24650;SDS011;12783;48.824;8.662;2023-04-03T16:11:13;5.72;;;2.00;;
24650;SDS011;12783;48.824;8.662;2023-04-03T16:13:40;4.47;;;2.00;;
24650;SDS011;12783;48.824;8.662;2023-04-03T16:16:07;3.50;;;1.83;;
24650;SDS011;12783;48.824;8.662;2023-04-03T16:18:34;2.88;;;2.10;;
24650;SDS011;12783;48.824;8.662;2023-04-03T16:21:01;5.20;;;2.20;;
24650;SDS011;12783;48.824;8.662;2023-04-03T16:23:28;4.50;;;1.95;;
24650;SDS011;12783;48.824;8.662;2023-04-03T16:25:55;3.15;;;2.13;;
24650;SDS011;12783;48.824;8.662;2023-04-03T16:28:21;6.25;;;1.92;;
24650;SDS011;12783;48.824;8.662;2023-04-03T16:30:48;3.97;;;2.10;;
24650;SDS011;12783;48.824;8.662;2023-04-03T16:33:15;2.95;;;1.75;;
24650;SDS011;12783;48.824;8.662;2023-04-03T16:35:42;4.82;;;2.38;;
24650;SDS011;12783;48.824;8.662;2023-04-03T16:38:10;4.03;;;2.10;;
24650;SDS011;12783;48.824;8.662;2023-04-03T16:40:36;6.10;;;2.10;;
24650;SDS011;12783;48.824;8.662;2023-04-03T16:43:03;5.03;;;2.05;;
24650;SDS011;12783;48.824;8.662;2023-04-03T16:45:30;5.88;;;1.73;;
24650;SDS011;12783;48.824;8.662;2023-04-03T16:47:57;3.05;;;2.08;;
24650;SDS011;12783;48.824;8.662;2023-04-03T16:50:24;5.47;;;2.42;;